createdAt,value
2023-03-24T00:01:56.138Z,5.88
2023-03-24T00:04:25.002Z,5.20
2023-03-24T00:06:52.302Z,5.20
2023-03-24T00:09:19.027Z,5.60
2023-03-24T00:11:45.709Z,5.35
2023-03-24T00:14:12.682Z,5.53
2023-03-24T00:16:42.458Z,6.22
2023-03-24T00:19:10.696Z,5.05
2023-03-24T00:21:37.786Z,4.32
2023-03-24T00:24:07.584Z,4.80
2023-03-24T00:26:37.485Z,4.50
2023-03-24T00:29:06.640Z,3.70
2023-03-24T00:31:34.169Z,4.53
2023-03-24T00:34:02.843Z,4.93
2023-03-24T00:36:29.592Z,5.65
2023-03-24T00:38:57.822Z,3.65
2023-03-24T00:41:26.888Z,5.72
2023-03-24T00:43:56.833Z,4.30
2023-03-24T00:46:29.963Z,6.28
2023-03-24T00:49:05.967Z,5.22
2023-03-24T00:51:37.093Z,5.78
2023-03-24T00:54:04.462Z,4.53
2023-03-24T00:56:33.388Z,3.88
2023-03-24T00:59:02.183Z,3.92
2023-03-24T01:01:32.994Z,5.20
2023-03-24T01:04:00.194Z,5.90
2023-03-24T01:06:26.908Z,6.40
2023-03-24T01:08:54.272Z,6.50
2023-03-24T01:11:26.254Z,5.75
2023-03-24T01:13:54.483Z,5.47
2023-03-24T01:16:25.539Z,6.40
2023-03-24T01:18:52.940Z,6.35
2023-03-24T01:21:19.648Z,4.28
2023-03-24T01:23:46.896Z,5.35
2023-03-24T01:26:13.589Z,4.57
2023-03-24T01:28:41.147Z,4.25
2023-03-24T01:31:09.899Z,3.83
2023-03-24T01:33:38.195Z,3.42
2023-03-24T01:36:06.824Z,5.93
2023-03-24T01:38:34.365Z,4.82
2023-03-24T01:41:01.050Z,3.83
2023-03-24T01:43:33.158Z,4.13
2023-03-24T01:46:06.692Z,4.82
2023-03-24T01:49:01.514Z,4.13
2023-03-24T01:51:34.566Z,6.93
2023-03-24T01:54:06.127Z,5.75
2023-03-24T01:56:38.147Z,5.22
2023-03-24T01:59:14.834Z,4.95
2023-03-24T02:02:02.695Z,3.67
2023-03-24T02:04:54.072Z,6.00
2023-03-24T02:07:53.333Z,7.47
2023-03-24T02:10:22.214Z,3.65
2023-03-24T02:12:48.950Z,5.28
2023-03-24T02:15:18.849Z,5.18
2023-03-24T02:18:07.895Z,5.05
2023-03-24T02:20:58.966Z,5.35
2023-03-24T02:23:25.707Z,4.82
2023-03-24T02:26:28.283Z,4.53
2023-03-24T02:29:17.957Z,4.78
2023-03-24T02:32:12.554Z,4.30
2023-03-24T02:35:36.213Z,3.47
2023-03-24T02:38:36.078Z,5.03
2023-03-24T02:41:33.361Z,4.65
2023-03-24T02:44:22.743Z,4.10
2023-03-24T02:47:01.058Z,3.95
2023-03-24T02:50:00.503Z,4.82
2023-03-24T02:52:43.253Z,6.60
2023-03-24T02:57:51.355Z,3.83
2023-03-24T03:00:48.438Z,4.97
2023-03-24T03:03:41.505Z,4.55
2023-03-24T03:06:18.588Z,4.00
2023-03-24T03:08:48.392Z,4.63
2023-03-24T03:11:16.999Z,4.88
2023-03-24T03:13:50.158Z,4.72
2023-03-24T03:16:38.125Z,4.45
2023-03-24T03:19:31.641Z,3.47
2023-03-24T03:21:59.821Z,3.95
2023-03-24T03:24:34.205Z,3.38
2023-03-24T03:27:08.247Z,4.82
2023-03-24T03:29:39.834Z,3.72
2023-03-24T03:32:10.889Z,4.17
2023-03-24T03:34:52.491Z,4.70
2023-03-24T03:37:30.599Z,3.65
2023-03-24T03:40:09.504Z,4.25
2023-03-24T03:42:39.671Z,5.88
2023-03-24T03:45:09.977Z,3.80
2023-03-24T03:47:37.692Z,3.45
2023-03-24T03:50:07.375Z,3.67
2023-03-24T03:52:34.955Z,3.53
2023-03-24T03:55:03.415Z,4.05
2023-03-24T03:57:30.416Z,5.18
2023-03-24T04:00:16.719Z,3.40
2023-03-24T04:03:33.205Z,3.90
2023-03-24T04:06:20.823Z,2.97
2023-03-24T04:08:56.708Z,3.35
2023-03-24T04:12:16.970Z,3.50
2023-03-24T04:15:12.769Z,5.80
2023-03-24T04:18:24.862Z,3.63
2023-03-24T04:21:14.156Z,4.68
2023-03-24T04:23:54.782Z,3.80
2023-03-24T04:26:34.265Z,5.65
2023-03-24T04:29:36.947Z,5.28
2023-03-24T04:32:08.728Z,4.40
2023-03-24T04:34:45.100Z,5.60
2023-03-24T04:37:40.661Z,3.60
2023-03-24T04:40:17.166Z,4.45
2023-03-24T04:42:49.018Z,3.47
2023-03-24T04:45:17.091Z,4.10
2023-03-24T04:48:17.776Z,3.33
2023-03-24T04:51:04.238Z,3.10
2023-03-24T04:53:47.255Z,4.78
2023-03-24T04:56:26.246Z,4.43
2023-03-24T04:59:04.272Z,6.18
2023-03-24T05:01:31.640Z,9.63
2023-03-24T05:04:20.995Z,4.55
2023-03-24T05:06:49.618Z,3.70
2023-03-24T05:09:21.579Z,4.20
2023-03-24T05:11:48.731Z,6.57
2023-03-24T05:14:16.568Z,3.80
2023-03-24T05:16:43.783Z,3.67
2023-03-24T05:19:11.058Z,4.07
2023-03-24T05:21:37.955Z,4.13
2023-03-24T05:24:06.773Z,3.25
2023-03-24T05:26:35.770Z,4.28
2023-03-24T05:29:13.995Z,4.32
2023-03-24T05:31:40.808Z,4.38
2023-03-24T05:34:14.468Z,4.13
2023-03-24T05:37:04.676Z,4.28
2023-03-24T05:39:31.337Z,4.70
2023-03-24T05:42:12.167Z,8.35
2023-03-24T05:44:38.883Z,5.43
2023-03-24T05:47:10.328Z,6.13
2023-03-24T05:49:37.022Z,16.77
2023-03-24T05:52:04.483Z,27.23
2023-03-24T05:54:33.990Z,11.30
2023-03-24T05:57:16.143Z,5.70
2023-03-24T06:00:17.004Z,5.70
2023-03-24T06:03:00.161Z,8.00
2023-03-24T06:05:36.577Z,9.98
2023-03-24T06:08:03.610Z,5.50
2023-03-24T06:10:33.322Z,7.82
2023-03-24T06:13:00.631Z,8.20
2023-03-24T06:15:28.198Z,7.88
2023-03-24T06:18:01.519Z,4.82
2023-03-24T06:20:33.607Z,5.97
2023-03-24T06:23:00.387Z,6.38
2023-03-24T06:25:35.362Z,4.70
2023-03-24T06:28:14.141Z,3.95
2023-03-24T06:30:47.373Z,3.92
2023-03-24T06:33:22.037Z,4.50
2023-03-24T06:35:49.034Z,4.05
2023-03-24T06:38:18.212Z,4.70
2023-03-24T06:40:45.427Z,3.70
2023-03-24T06:43:12.186Z,5.22
2023-03-24T06:45:41.344Z,5.63
2023-03-24T06:48:12.755Z,4.40
2023-03-24T06:50:41.156Z,19.80
2023-03-24T06:53:09.809Z,34.10
2023-03-24T06:55:37.543Z,12.57
2023-03-24T06:58:05.453Z,12.70
2023-03-24T07:00:59.950Z,12.15
2023-03-24T07:03:32.436Z,7.82
2023-03-24T07:06:18.608Z,4.40
2023-03-24T07:08:50.473Z,4.18
2023-03-24T07:11:17.944Z,4.93
2023-03-24T07:13:50.346Z,9.15
2023-03-24T07:16:17.148Z,4.82
2023-03-24T07:18:44.836Z,4.72
2023-03-24T07:21:11.892Z,5.20
2023-03-24T07:23:38.709Z,5.70
2023-03-24T07:26:10.597Z,6.75
2023-03-24T07:28:46.319Z,5.00
2023-03-24T07:31:17.746Z,5.72
2023-03-24T07:33:46.787Z,5.25
2023-03-24T07:36:14.193Z,4.40
2023-03-24T07:38:41.059Z,3.83
2023-03-24T07:43:46.390Z,3.50
2023-03-24T07:46:19.900Z,6.40
2023-03-24T07:48:47.184Z,3.28
2023-03-24T07:51:16.476Z,9.63
2023-03-24T07:53:53.324Z,7.93
2023-03-24T07:56:49.248Z,5.05
2023-03-24T07:59:17.567Z,4.28
2023-03-24T08:02:03.315Z,3.10
2023-03-24T08:04:42.848Z,3.08
2023-03-24T08:07:28.430Z,2.83
2023-03-24T08:09:55.107Z,4.57
2023-03-24T08:12:21.751Z,6.57
2023-03-24T08:14:48.619Z,3.55
2023-03-24T08:17:15.272Z,3.78
2023-03-24T08:19:56.182Z,3.35
2023-03-24T08:22:26.844Z,3.05
2023-03-24T08:24:53.511Z,3.35
2023-03-24T08:27:20.432Z,2.92
2023-03-24T08:29:47.136Z,2.55
2023-03-24T08:32:13.847Z,2.60
2023-03-24T08:34:40.522Z,206.82
2023-03-24T08:39:09.687Z,3.97
2023-03-24T08:41:36.777Z,419.23
2023-03-24T08:46:18.210Z,617.42
2023-03-24T08:48:44.934Z,4.28
2023-03-24T08:51:16.352Z,585.72
2023-03-24T08:53:43.618Z,403.42
2023-03-24T08:56:10.352Z,38.42
2023-03-24T08:58:37.065Z,21.70
2023-03-24T09:01:03.814Z,95.22
2023-03-24T09:03:30.866Z,82.00
2023-03-24T09:05:58.414Z,94.72
2023-03-24T09:08:25.769Z,20.80
2023-03-24T09:10:52.505Z,24.00
2023-03-24T09:13:20.910Z,3.70
2023-03-24T09:15:49.816Z,568.10
2023-03-24T09:18:17.775Z,218.93
2023-03-24T09:20:45.462Z,444.75
2023-03-24T09:23:12.288Z,11.48
2023-03-24T09:26:36.006Z,26.23
2023-03-24T09:29:03.072Z,50.80
2023-03-24T09:31:30.004Z,13.95
2023-03-24T09:33:56.706Z,52.53
2023-03-24T09:36:23.584Z,485.92
2023-03-24T09:38:50.671Z,509.52
2023-03-24T09:41:27.145Z,527.30
2023-03-24T09:44:05.603Z,7.40
2023-03-24T09:46:55.360Z,27.50
2023-03-24T09:49:32.552Z,83.03
2023-03-24T09:52:06.959Z,69.22
2023-03-24T09:54:47.913Z,4.72
2023-03-24T09:57:21.879Z,57.20
2023-03-24T09:59:48.610Z,512.95
2023-03-24T10:02:20.180Z,3.97
2023-03-24T10:04:47.531Z,580.05
2023-03-24T10:07:37.309Z,568.33
2023-03-24T10:10:14.522Z,462.85
2023-03-24T10:12:48.173Z,570.47
2023-03-24T10:15:30.940Z,2.92
2023-03-24T10:18:10.789Z,3.20
2023-03-24T10:20:53.649Z,2.75
2023-03-24T10:26:16.328Z,3.33
2023-03-24T10:28:56.944Z,3.10
2023-03-24T10:31:32.626Z,3.00
2023-03-24T10:34:00.247Z,3.08
2023-03-24T10:36:28.820Z,3.70
2023-03-24T10:38:57.499Z,2.30
2023-03-24T10:41:27.807Z,3.47
2023-03-24T10:43:56.905Z,2.10
2023-03-24T10:46:29.888Z,2.22
2023-03-24T10:49:16.417Z,1.92
2023-03-24T10:51:49.668Z,565.78
2023-03-24T10:54:25.473Z,2.00
2023-03-24T10:56:58.926Z,2.53
2023-03-24T10:59:50.977Z,4.80
2023-03-24T11:02:21.860Z,2.45
2023-03-24T11:05:03.472Z,2.00
2023-03-24T11:07:36.568Z,1.70
2023-03-24T11:10:09.190Z,2.30
2023-03-24T11:12:41.447Z,2.35
2023-03-24T11:15:21.092Z,3.28
2023-03-24T11:17:56.362Z,3.22
2023-03-24T11:20:45.786Z,2.95
2023-03-24T11:23:29.134Z,2.58
2023-03-24T11:26:08.072Z,3.13
2023-03-24T11:28:46.903Z,3.35
2023-03-24T11:31:24.313Z,3.00
2023-03-24T11:34:24.242Z,3.38
2023-03-24T11:36:55.037Z,3.53
2023-03-24T11:39:27.240Z,2.97
2023-03-24T11:42:10.878Z,4.13
2023-03-24T11:44:55.352Z,3.42
2023-03-24T11:47:31.228Z,3.38
2023-03-24T11:50:10.176Z,3.33
2023-03-24T11:53:04.956Z,4.45
2023-03-24T11:55:48.030Z,3.45
2023-03-24T11:58:44.236Z,4.40
2023-03-24T12:01:16.782Z,4.90
2023-03-24T12:06:43.382Z,4.22
2023-03-24T12:09:37.884Z,3.40
2023-03-24T12:12:23.368Z,5.18
2023-03-24T12:15:00.892Z,3.95
2023-03-24T12:17:41.759Z,5.05
2023-03-24T12:20:18.133Z,4.13
2023-03-24T12:23:04.601Z,4.28
2023-03-24T12:25:49.218Z,3.90
2023-03-24T12:28:30.158Z,5.18
2023-03-24T12:31:17.523Z,3.33
2023-03-24T12:34:20.187Z,3.35
2023-03-24T12:37:12.686Z,4.90
2023-03-24T12:39:57.893Z,3.53
2023-03-24T12:42:26.035Z,4.13
2023-03-24T12:45:11.468Z,3.17
2023-03-24T12:48:03.489Z,2.25
2023-03-24T12:50:51.798Z,2.38
2023-03-24T12:53:41.833Z,2.60
2023-03-24T12:56:15.002Z,2.30
2023-03-24T12:58:51.892Z,2.38
2023-03-24T13:01:31.842Z,2.28
2023-03-24T13:04:07.377Z,1.90
2023-03-24T13:06:40.691Z,2.13
2023-03-24T13:09:46.173Z,3.17
2023-03-24T13:12:20.632Z,1.65
2023-03-24T13:15:13.878Z,1.70
2023-03-24T13:18:11.818Z,1.50
2023-03-24T13:20:53.913Z,1.73
2023-03-24T13:23:48.383Z,2.07
2023-03-24T13:26:34.108Z,1.45
2023-03-24T13:29:03.655Z,2.17
2023-03-24T13:31:40.587Z,1.90
2023-03-24T13:34:22.239Z,1.60
2023-03-24T13:36:52.730Z,2.28
2023-03-24T13:39:25.771Z,2.33
2023-03-24T13:41:55.606Z,1.48
2023-03-24T13:44:25.512Z,1.30
2023-03-24T13:47:16.176Z,1.20
2023-03-24T13:50:04.065Z,1.30
2023-03-24T13:52:39.854Z,1.00
2023-03-24T13:55:14.437Z,1.25
2023-03-24T13:57:42.685Z,2.60
2023-03-24T14:00:17.670Z,2.55
2023-03-24T14:02:52.624Z,1.42
2023-03-24T14:05:22.196Z,1.50
2023-03-24T14:08:11.181Z,1.70
2023-03-24T14:10:44.377Z,1.60
2023-03-24T14:13:20.765Z,2.50
2023-03-24T14:15:58.391Z,1.98
2023-03-24T14:18:25.836Z,1.83
2023-03-24T14:20:56.139Z,1.60
2023-03-24T14:23:45.642Z,3.05
2023-03-24T14:26:21.278Z,4.07
2023-03-24T14:28:52.422Z,1.90
2023-03-24T14:31:29.034Z,2.92
2023-03-24T14:34:02.240Z,507.65
2023-03-24T14:36:32.793Z,1.98
2023-03-24T14:39:40.420Z,540.72
2023-03-24T14:42:28.002Z,540.97
2023-03-24T14:44:57.173Z,1.75
2023-03-24T14:47:35.549Z,1.45
2023-03-24T14:50:13.016Z,0.95
2023-03-24T14:52:53.429Z,548.33
2023-03-24T14:55:21.708Z,573.65
2023-03-24T14:57:53.225Z,15.35
2023-03-24T15:00:34.438Z,375.93
2023-03-24T15:03:28.994Z,22.92
2023-03-24T15:06:14.325Z,271.63
2023-03-24T15:08:46.870Z,15.23
2023-03-24T15:13:43.378Z,546.55
2023-03-24T15:16:13.129Z,566.20
2023-03-24T15:19:00.056Z,560.78
2023-03-24T15:21:35.643Z,510.48
2023-03-24T15:24:23.029Z,452.33
2023-03-24T15:27:14.557Z,441.75
2023-03-24T15:29:42.966Z,27.50
2023-03-24T15:32:19.124Z,107.47
2023-03-24T15:34:52.238Z,569.15
2023-03-24T15:37:41.312Z,16.13
2023-03-24T15:40:31.551Z,547.75
2023-03-24T15:43:00.664Z,391.20
2023-03-24T15:45:28.394Z,28.52
2023-03-24T15:47:56.569Z,567.58
2023-03-24T15:50:35.438Z,563.35
2023-03-24T15:53:14.321Z,559.60
2023-03-24T15:55:43.217Z,256.00
2023-03-24T15:58:23.341Z,563.78
2023-03-24T16:00:54.017Z,558.40
2023-03-24T16:03:26.420Z,21.90
2023-03-24T16:05:55.802Z,26.92
2023-03-24T16:08:38.741Z,412.80
2023-03-24T16:11:10.840Z,552.25
2023-03-24T16:13:39.184Z,381.58
2023-03-24T16:16:15.474Z,553.42
2023-03-24T16:18:44.757Z,28.50
2023-03-24T16:21:19.360Z,392.80
2023-03-24T16:23:47.415Z,20.95
2023-03-24T16:26:17.891Z,164.55
2023-03-24T16:28:45.174Z,55.47
2023-03-24T16:31:22.680Z,36.80
2023-03-24T16:33:49.439Z,42.08
2023-03-24T16:36:17.208Z,17.77
2023-03-24T16:38:48.518Z,14.90
2023-03-24T16:41:15.854Z,14.85
2023-03-24T16:43:43.814Z,558.00
2023-03-24T16:46:22.405Z,560.25
2023-03-24T16:48:49.119Z,401.42
2023-03-24T16:51:16.992Z,557.25
2023-03-24T16:53:45.934Z,43.03
2023-03-24T16:56:14.853Z,110.80
2023-03-24T16:58:41.593Z,554.58
2023-03-24T17:01:26.353Z,128.60
2023-03-24T17:03:58.628Z,540.13
2023-03-24T17:06:27.099Z,21.27
2023-03-24T17:08:54.185Z,25.92
2023-03-24T17:11:28.156Z,539.38
2023-03-24T17:13:57.212Z,543.38
2023-03-24T17:16:25.684Z,390.50
2023-03-24T17:18:52.521Z,61.80
2023-03-24T17:21:20.028Z,263.52
2023-03-24T17:23:49.240Z,551.88
2023-03-24T17:26:17.017Z,312.83
2023-03-24T17:28:43.930Z,544.30
2023-03-24T17:31:19.899Z,293.08
2023-03-24T17:33:47.074Z,522.85
2023-03-24T17:36:17.206Z,17.10
2023-03-24T17:38:47.154Z,208.43
2023-03-24T17:41:14.233Z,527.05
2023-03-24T17:43:40.943Z,256.35
2023-03-24T17:46:08.030Z,534.05
2023-03-24T17:48:34.931Z,16.77
2023-03-24T17:51:01.625Z,14.05
2023-03-24T17:53:28.505Z,16.20
2023-03-24T17:55:58.250Z,12.15
2023-03-24T17:58:29.939Z,12.40
2023-03-24T18:00:58.454Z,10.68
2023-03-24T18:03:36.110Z,11.77
2023-03-24T18:06:08.157Z,12.13
2023-03-24T18:08:35.870Z,16.00
2023-03-24T18:11:14.382Z,14.43
2023-03-24T18:13:42.192Z,10.85
2023-03-24T18:16:20.811Z,146.25
2023-03-24T18:18:49.805Z,13.02
2023-03-24T18:21:17.594Z,19.85
2023-03-24T18:23:46.198Z,523.83
2023-03-24T18:26:12.836Z,106.93
2023-03-24T18:28:39.532Z,149.20
2023-03-24T18:31:10.237Z,58.97
2023-03-24T18:33:36.900Z,160.13
2023-03-24T18:36:05.471Z,93.78
2023-03-24T18:38:32.150Z,21.10
2023-03-24T18:41:08.221Z,14.48
2023-03-24T18:43:37.555Z,19.40
2023-03-24T18:46:05.565Z,12.65
2023-03-24T18:48:32.344Z,47.03
2023-03-24T18:50:58.998Z,25.25
2023-03-24T18:53:25.663Z,13.13
2023-03-24T18:55:52.490Z,16.77
2023-03-24T18:58:19.309Z,26.38
2023-03-24T19:00:51.413Z,525.65
2023-03-24T19:03:20.108Z,17.33
2023-03-24T19:05:47.123Z,24.58
2023-03-24T19:08:14.949Z,39.47
2023-03-24T19:10:43.024Z,23.38
2023-03-24T19:13:11.768Z,526.80
2023-03-24T19:15:39.292Z,371.45
2023-03-24T19:18:06.486Z,17.85
2023-03-24T19:21:47.321Z,521.15
2023-03-24T19:24:14.043Z,14.32
2023-03-24T19:26:40.711Z,517.58
2023-03-24T19:29:07.367Z,43.08
2023-03-24T19:31:34.957Z,15.77
2023-03-24T19:34:01.661Z,19.33
2023-03-24T19:36:28.329Z,247.82
2023-03-24T19:38:55.696Z,23.95
2023-03-24T19:41:26.154Z,10.85
2023-03-24T19:43:53.137Z,27.55
2023-03-24T19:46:23.060Z,516.42
2023-03-24T19:48:49.771Z,46.83
2023-03-24T19:51:16.546Z,6.00
2023-03-24T19:53:43.238Z,12.80
2023-03-24T19:56:10.609Z,9.90
2023-03-24T19:58:37.309Z,14.18
2023-03-24T20:01:04.080Z,17.80
2023-03-24T20:03:30.840Z,8.07
2023-03-24T20:06:03.492Z,125.35
2023-03-24T20:10:56.771Z,231.35
2023-03-24T20:13:25.734Z,507.25
2023-03-24T20:15:52.642Z,533.65
2023-03-24T20:18:19.588Z,544.15
2023-03-24T20:20:46.396Z,537.00
2023-03-24T20:23:13.087Z,553.45
2023-03-24T20:25:43.192Z,553.40
2023-03-24T20:28:10.349Z,13.13
2023-03-24T20:30:38.707Z,402.65
2023-03-24T20:33:05.789Z,549.47
2023-03-24T20:35:33.450Z,554.00
2023-03-24T20:38:01.802Z,551.33
2023-03-24T20:40:28.508Z,540.20
2023-03-24T20:42:55.348Z,576.58
2023-03-24T20:45:22.043Z,554.03
2023-03-24T20:47:48.741Z,558.10
2023-03-24T20:50:15.586Z,535.10
2023-03-24T20:52:42.449Z,572.45
2023-03-24T20:55:11.392Z,559.65
2023-03-24T20:57:38.359Z,539.40
2023-03-24T21:00:13.293Z,574.13
2023-03-24T21:02:41.920Z,564.20
2023-03-24T21:05:09.116Z,397.27
2023-03-24T21:07:38.078Z,552.08
2023-03-24T21:10:06.331Z,552.22
2023-03-24T21:12:33.594Z,533.58
2023-03-24T21:15:00.398Z,560.63
2023-03-24T21:17:32.006Z,557.10
2023-03-24T21:20:13.762Z,402.02
2023-03-24T21:22:56.269Z,567.58
2023-03-24T21:25:29.714Z,537.85
2023-03-24T21:27:57.467Z,542.60
2023-03-24T21:30:26.157Z,551.75
2023-03-24T21:32:54.654Z,545.85
2023-03-24T21:35:22.407Z,556.60
2023-03-24T21:37:49.637Z,558.00
2023-03-24T21:40:18.976Z,544.95
2023-03-24T21:42:46.733Z,549.88
2023-03-24T21:45:18.763Z,562.13
2023-03-24T21:47:46.669Z,570.78
2023-03-24T21:50:18.967Z,564.72
2023-03-24T21:52:47.536Z,552.92
2023-03-24T21:55:15.760Z,556.38
2023-03-24T21:57:43.733Z,538.58
2023-03-24T22:00:14.436Z,563.67
2023-03-24T22:02:49.689Z,541.83
2023-03-24T22:05:18.259Z,538.92
2023-03-24T22:07:46.861Z,561.88
2023-03-24T22:10:16.034Z,559.97
2023-03-24T22:12:43.918Z,562.45
2023-03-24T22:15:11.825Z,573.72
2023-03-24T22:17:38.781Z,585.45
2023-03-24T22:20:08.451Z,553.13
2023-03-24T22:22:36.465Z,544.03
2023-03-24T22:25:04.551Z,550.80
2023-03-24T22:27:31.406Z,560.10
2023-03-24T22:29:58.089Z,545.22
2023-03-24T22:32:25.264Z,556.85
2023-03-24T22:34:52.142Z,542.33
2023-03-24T22:37:18.973Z,568.75
2023-03-24T22:39:45.811Z,567.30
2023-03-24T22:42:12.778Z,567.03
2023-03-24T22:44:41.030Z,575.75
2023-03-24T22:47:08.538Z,557.45
2023-03-24T22:49:36.601Z,576.08
2023-03-24T22:52:03.972Z,578.78
2023-03-24T22:54:30.794Z,569.30
2023-03-24T22:56:57.633Z,551.85
2023-03-24T22:59:25.184Z,573.90
2023-03-24T23:02:02.494Z,576.67
2023-03-24T23:04:36.031Z,578.08
2023-03-24T23:07:04.110Z,556.33
2023-03-24T23:09:30.867Z,577.80
2023-03-24T23:11:57.538Z,583.53
2023-03-24T23:14:25.519Z,568.75
2023-03-24T23:16:52.431Z,548.72
2023-03-24T23:19:19.740Z,543.17
2023-03-24T23:21:46.409Z,549.17
2023-03-24T23:24:13.152Z,568.22
2023-03-24T23:26:39.823Z,580.22
2023-03-24T23:29:06.581Z,580.42
2023-03-24T23:31:33.405Z,583.00
2023-03-24T23:34:00.294Z,536.42
2023-03-24T23:36:28.167Z,549.35
2023-03-24T23:38:55.689Z,573.33
2023-03-24T23:41:22.734Z,574.60
2023-03-24T23:43:50.717Z,576.15
2023-03-24T23:46:21.894Z,577.20
2023-03-24T23:48:48.706Z,570.55
2023-03-24T23:51:15.382Z,585.33
2023-03-24T23:53:42.123Z,582.45
2023-03-24T23:56:11.728Z,564.05
2023-03-24T23:58:41.065Z,576.92
